Search for airport 
image banner adimage banner adimage banner ad
image banner ad

PN22 - University Of Pitt Medical Landing Area

Located in Bradford, United States

ICAO - PN22, IATA -

Data provided by Airmate  

General information

Coordinates: N41°56'42" W78°40'20"
Elevation is 1481 feet MSL.
Magnetic variation is -11° East
View others Airports in Pennsylvania

Operational data

Special qualification required
Current time UTC:
Current local time:
Weather at : KBFD - Bradford Rgnl ( 16 km )
METAR: KBFD 091353Z AUTO 22006KT 10SM SCT023 BKN100 06/M01 A3000 RMK AO2 SLP167 T00611006
TAF: KBFD 091131Z 0912/1012 26004KT P6SM SCT030 BKN100 FM091500 15006KT 4SM -RA BR OVC020 FM091800 13008G15KT 3SM -RASN BR OVC008 FM100200 05008G20KT 2SM -RASN BR OVC005 FM101000 34008G15KT P6SM BKN009 OVC015
View NOTAMs / SUP AIP / TFR affecting this airport [VIEW]
Communications frequencies: [VIEW]

Runways:

Airport contact information

Address: Bradford United States

Satellite view of PN22